Time;durP1;ratioP1;P1;durP2;ratioP2;P2;SDS_P1;SDS_P2;PMS_P1;PMS_P2;Temp;Humidity;BMP_temperature;BMP_pressure;BME280_temperature;BME280_humidity;BME280_pressure;Samples;Min_cycle;Max_cycle;Signal;HPM_P1;HPM_P2
2022/08/31 00:04:57;;;;;;;5.82;5.25;;;;;;;;;;10412152;28;20124;-71
2022/08/31 00:09:58;;;;;;;6.73;4.87;;;;;;;;;;10413403;28;20034;-70
2022/08/31 00:14:58;;;;;;;5.27;4.77;;;;;;;;;;10412540;28;20366;-71
2022/08/31 00:19:59;;;;;;;7.73;5.40;;;;;;;;;;10413156;28;20132;-72
2022/08/31 00:24:59;;;;;;;6.72;5.10;;;;;;;;;;10406596;28;20144;-71
2022/08/31 00:29:59;;;;;;;6.23;5.47;;;;;;;;;;10414951;28;20059;-71
2022/08/31 00:35:00;;;;;;;7.17;5.43;;;;;;;;;;10406914;28;20463;-72
2022/08/31 00:40:00;;;;;;;5.93;5.07;;;;;;;;;;10419035;28;20311;-72
2022/08/31 00:45:02;;;;;;;5.88;5.30;;;;;;;;;;10424406;28;20346;-72
2022/08/31 00:50:05;;;;;;;7.32;5.90;;;;;;;;;;10414416;28;20047;-72
2022/08/31 00:55:31;;;;;;;6.20;5.35;;;;;;;;;;10408730;28;20041;-71
2022/08/31 01:00:33;;;;;;;8.50;6.00;;;;;;;;;;10406400;28;20498;-72
2022/08/31 01:05:34;;;;;;;6.53;5.77;;;;;;;;;;10405370;28;20033;-72
2022/08/31 01:10:36;;;;;;;6.43;5.63;;;;;;;;;;10404174;28;20460;-71
2022/08/31 01:15:38;;;;;;;6.60;5.90;;;;;;;;;;10406230;28;20704;-72
2022/08/31 01:20:45;;;;;;;6.68;5.80;;;;;;;;;;10404545;28;20045;-72
2022/08/31 01:25:47;;;;;;;6.30;5.60;;;;;;;;;;10414233;28;20162;-72
2022/08/31 01:30:58;;;;;;;6.25;5.65;;;;;;;;;;10414429;28;20520;-73
2022/08/31 01:35:59;;;;;;;7.40;6.10;;;;;;;;;;10411558;28;20029;-73
2022/08/31 01:41:01;;;;;;;6.43;5.60;;;;;;;;;;10412696;28;20064;-73
2022/08/31 01:46:02;;;;;;;7.50;6.15;;;;;;;;;;10421748;28;20049;-72
2022/08/31 01:51:03;;;;;;;8.18;5.75;;;;;;;;;;10410427;28;20036;-71
2022/08/31 01:56:09;;;;;;;7.03;6.05;;;;;;;;;;10408262;28;20041;-72
2022/08/31 02:01:11;;;;;;;6.72;6.03;;;;;;;;;;10411155;28;20080;-72
2022/08/31 02:06:12;;;;;;;6.57;5.88;;;;;;;;;;10410714;28;20079;-73
2022/08/31 02:11:14;;;;;;;6.85;6.15;;;;;;;;;;10406715;28;20037;-73
2022/08/31 02:16:14;;;;;;;7.43;5.97;;;;;;;;;;10400550;28;20048;-73
2022/08/31 02:21:15;;;;;;;7.25;6.43;;;;;;;;;;10412751;28;20303;-72
2022/08/31 02:26:15;;;;;;;6.53;5.80;;;;;;;;;;10409203;28;20033;-72
2022/08/31 02:31:19;;;;;;;8.35;6.43;;;;;;;;;;10395220;28;20034;-73
2022/08/31 02:36:26;;;;;;;8.07;6.43;;;;;;;;;;10408376;28;20072;-72
2022/08/31 02:41:28;;;;;;;6.35;5.75;;;;;;;;;;10412538;28;20045;-71
2022/08/31 02:46:28;;;;;;;8.07;6.07;;;;;;;;;;10409414;28;20061;-71
2022/08/31 02:51:48;;;;;;;7.10;6.40;;;;;;;;;;10424416;28;20109;-73
2022/08/31 02:56:49;;;;;;;6.53;5.93;;;;;;;;;;10419722;28;20550;-72
2022/08/31 03:01:52;;;;;;;6.82;6.13;;;;;;;;;;10418945;28;20044;-73
2022/08/31 03:06:53;;;;;;;7.85;6.65;;;;;;;;;;10426913;28;20037;-72
2022/08/31 03:11:54;;;;;;;6.72;6.00;;;;;;;;;;10416950;28;20063;-71
2022/08/31 03:16:54;;;;;;;6.97;6.18;;;;;;;;;;10423133;28;20078;-71
2022/08/31 03:21:54;;;;;;;8.00;6.65;;;;;;;;;;10403965;28;20056;-70
2022/08/31 03:26:55;;;;;;;8.80;6.43;;;;;;;;;;10416586;28;20045;-71
2022/08/31 03:31:55;;;;;;;8.10;7.30;;;;;;;;;;10396960;28;20045;-71
2022/08/31 03:36:57;;;;;;;8.07;6.77;;;;;;;;;;10422499;28;20041;-71
2022/08/31 03:41:58;;;;;;;6.97;6.28;;;;;;;;;;10402846;28;20037;-72
2022/08/31 03:46:59;;;;;;;8.80;6.70;;;;;;;;;;10417349;28;20041;-71
2022/08/31 03:52:01;;;;;;;7.72;6.32;;;;;;;;;;10414551;28;20128;-73
2022/08/31 03:57:04;;;;;;;7.18;6.47;;;;;;;;;;10410492;28;20034;-71
2022/08/31 04:02:05;;;;;;;7.65;6.15;;;;;;;;;;10399853;28;20053;-72
2022/08/31 04:07:37;;;;;;;7.25;6.55;;;;;;;;;;10407267;28;20054;-71
2022/08/31 04:13:10;;;;;;;7.03;6.32;;;;;;;;;;10421336;28;20099;-71
2022/08/31 04:18:28;;;;;;;8.48;6.70;;;;;;;;;;10401352;28;20403;-72
2022/08/31 04:23:29;;;;;;;7.18;6.45;;;;;;;;;;10421823;28;20044;-71
2022/08/31 04:28:31;;;;;;;8.33;7.53;;;;;;;;;;10414601;28;20144;-72
2022/08/31 04:33:31;;;;;;;7.05;6.40;;;;;;;;;;10413312;28;20814;-71
2022/08/31 04:38:32;;;;;;;8.02;6.90;;;;;;;;;;10409167;28;20049;-70
2022/08/31 04:43:32;;;;;;;7.93;6.40;;;;;;;;;;10393926;28;20037;-70
2022/08/31 04:48:34;;;;;;;8.60;7.18;;;;;;;;;;10414546;28;20038;-72
2022/08/31 04:53:37;;;;;;;8.18;7.38;;;;;;;;;;10401638;28;20030;-73
2022/08/31 04:58:37;;;;;;;8.07;6.65;;;;;;;;;;10414580;28;20045;-71
2022/08/31 05:03:39;;;;;;;7.40;6.63;;;;;;;;;;10416733;28;20033;-70
2022/08/31 05:08:40;;;;;;;8.17;6.77;;;;;;;;;;10401335;28;20343;-71
2022/08/31 05:13:41;;;;;;;6.90;6.03;;;;;;;;;;10416998;28;20053;-71
2022/08/31 05:18:42;;;;;;;6.82;6.10;;;;;;;;;;10399976;28;20033;-72
2022/08/31 05:23:45;;;;;;;7.95;7.15;;;;;;;;;;10452582;28;20037;-73
2022/08/31 05:28:46;;;;;;;8.83;7.03;;;;;;;;;;10462674;28;20026;-73
2022/08/31 05:33:46;;;;;;;9.02;7.10;;;;;;;;;;10465513;28;20029;-73
2022/08/31 05:38:48;;;;;;;7.80;6.82;;;;;;;;;;10472378;28;20033;-73
2022/08/31 05:43:49;;;;;;;7.80;7.05;;;;;;;;;;10432689;28;20037;-72
2022/08/31 05:48:50;;;;;;;8.65;7.28;;;;;;;;;;10418793;28;20528;-72
2022/08/31 05:53:51;;;;;;;7.38;6.32;;;;;;;;;;10415619;28;20037;-71
2022/08/31 05:58:53;;;;;;;9.40;7.05;;;;;;;;;;10400527;28;20147;-71
2022/08/31 06:03:53;;;;;;;7.60;6.90;;;;;;;;;;10403556;28;20095;-71
2022/08/31 06:08:54;;;;;;;7.75;6.95;;;;;;;;;;10397460;28;20041;-69
2022/08/31 06:13:57;;;;;;;9.75;7.63;;;;;;;;;;10394394;28;20092;-71
2022/08/31 06:18:58;;;;;;;7.65;6.50;;;;;;;;;;10408216;28;20319;-71
2022/08/31 06:23:59;;;;;;;8.35;7.45;;;;;;;;;;10397217;28;20770;-69
2022/08/31 06:29:01;;;;;;;7.68;6.93;;;;;;;;;;10413606;28;20108;-70
2022/08/31 06:34:03;;;;;;;7.88;6.95;;;;;;;;;;10431563;28;20041;-70
2022/08/31 06:39:23;;;;;;;10.93;6.85;;;;;;;;;;10417612;28;20033;-71
2022/08/31 06:44:29;;;;;;;8.23;7.38;;;;;;;;;;10422221;28;20106;-72
2022/08/31 06:49:47;;;;;;;7.65;6.38;;;;;;;;;;10419942;28;20048;-70
2022/08/31 06:54:48;;;;;;;8.35;7.43;;;;;;;;;;10414416;28;20038;-69
2022/08/31 07:00:08;;;;;;;7.10;5.88;;;;;;;;;;10411054;28;20041;-71
2022/08/31 07:05:21;;;;;;;7.75;6.13;;;;;;;;;;10398085;28;20389;-69
2022/08/31 07:10:21;;;;;;;8.55;6.45;;;;;;;;;;10415361;28;20041;-72
2022/08/31 07:15:22;;;;;;;8.60;7.70;;;;;;;;;;10432927;28;20090;-69
2022/08/31 07:20:24;;;;;;;8.10;6.87;;;;;;;;;;10421651;28;20292;-69
2022/08/31 07:25:25;;;;;;;8.93;5.85;;;;;;;;;;10425054;28;20049;-72
2022/08/31 07:30:26;;;;;;;7.30;6.53;;;;;;;;;;10402106;28;20083;-74
2022/08/31 07:35:30;;;;;;;7.28;6.57;;;;;;;;;;10402938;28;20037;-74
2022/08/31 07:46:02;;;;;;;10.35;6.57;;;;;;;;;;10419163;28;20049;-73
2022/08/31 07:51:02;;;;;;;7.93;7.07;;;;;;;;;;10405326;28;20409;-74
2022/08/31 07:56:07;;;;;;;6.45;5.60;;;;;;;;;;10415633;28;20124;-70
2022/08/31 08:01:13;;;;;;;6.75;5.60;;;;;;;;;;10420897;28;20041;-70
2022/08/31 08:06:15;;;;;;;7.90;5.70;;;;;;;;;;10419807;28;20045;-73
2022/08/31 08:11:35;;;;;;;6.82;6.03;;;;;;;;;;10416391;28;20045;-72
2022/08/31 08:17:08;;;;;;;6.50;5.88;;;;;;;;;;10439628;28;20033;-74
2022/08/31 08:22:32;;;;;;;6.95;5.63;;;;;;;;;;10453376;28;20064;-71
2022/08/31 08:27:52;;;;;;;5.97;4.88;;;;;;;;;;10444306;28;20120;-72
2022/08/31 08:33:14;;;;;;;8.98;5.15;;;;;;;;;;10418059;28;20040;-71
2022/08/31 08:38:15;;;;;;;;;;;;;;;;;;10408386;28;20043;-72
2022/08/31 08:43:17;;;;;;;5.20;4.70;;;;;;;;;;10423530;28;19917;-72
2022/08/31 08:48:38;;;;;;;5.65;4.85;;;;;;;;;;10417838;28;20049;-70
2022/08/31 08:53:41;;;;;;;5.00;4.50;;;;;;;;;;10424124;28;20615;-69
2022/08/31 08:59:02;;;;;;;5.38;4.65;;;;;;;;;;10409883;28;20095;-70
2022/08/31 09:04:17;;;;;;;5.82;4.63;;;;;;;;;;10414774;28;20041;-70
2022/08/31 09:09:56;;;;;;;5.35;4.57;;;;;;;;;;10401088;28;20390;-70
2022/08/31 09:15:10;;;;;;;5.55;4.43;;;;;;;;;;10408752;28;20076;-71
2022/08/31 09:20:15;;;;;;;6.53;4.88;;;;;;;;;;10406147;28;20083;-68
2022/08/31 09:25:18;;;;;;;5.47;4.55;;;;;;;;;;10382524;28;20053;-71
2022/08/31 09:30:51;;;;;;;4.68;4.28;;;;;;;;;;10412149;28;20449;-70
2022/08/31 09:35:55;;;;;;;5.38;4.32;;;;;;;;;;10410313;28;20037;-72
2022/08/31 09:40:56;;;;;;;5.32;4.65;;;;;;;;;;10409477;28;20037;-69
2022/08/31 09:46:01;;;;;;;5.45;4.88;;;;;;;;;;10408424;28;20488;-70
2022/08/31 09:51:02;;;;;;;5.43;4.38;;;;;;;;;;10411394;28;20061;-73
2022/08/31 09:56:14;;;;;;;4.85;4.13;;;;;;;;;;10403286;28;20033;-69
2022/08/31 10:01:27;;;;;;;7.80;5.72;;;;;;;;;;10404877;28;20064;-69
2022/08/31 10:06:40;;;;;;;4.45;3.92;;;;;;;;;;10393165;28;20377;-68
2022/08/31 10:11:43;;;;;;;5.07;4.57;;;;;;;;;;10404616;28;20099;-68
2022/08/31 10:16:46;;;;;;;5.45;4.18;;;;;;;;;;10415486;28;20504;-69
2022/08/31 10:21:52;;;;;;;4.07;3.70;;;;;;;;;;10408305;28;20042;-69
2022/08/31 10:27:16;;;;;;;5.13;4.35;;;;;;;;;;10407668;28;20059;-69
2022/08/31 10:32:22;;;;;;;6.15;3.92;;;;;;;;;;10403453;28;20420;-70
2022/08/31 10:37:25;;;;;;;3.95;3.65;;;;;;;;;;10410139;28;20038;-68
2022/08/31 10:42:36;;;;;;;4.18;3.70;;;;;;;;;;10406257;28;20037;-69
2022/08/31 10:47:40;;;;;;;7.15;5.68;;;;;;;;;;10411690;28;20046;-70
2022/08/31 10:52:47;;;;;;;4.10;3.70;;;;;;;;;;10403545;28;20076;-69
2022/08/31 10:57:48;;;;;;;4.68;3.80;;;;;;;;;;10405001;28;20041;-69
2022/08/31 11:03:02;;;;;;;4.33;3.80;;;;;;;;;;10432769;28;20037;-69
2022/08/31 11:08:22;;;;;;;5.07;4.13;;;;;;;;;;10438175;28;20045;-72
2022/08/31 11:13:42;;;;;;;5.13;3.60;;;;;;;;;;10427079;28;20038;-70
2022/08/31 11:18:47;;;;;;;5.80;3.97;;;;;;;;;;10416578;28;20041;-68
2022/08/31 11:23:47;;;;;;;4.10;3.70;;;;;;;;;;10408781;28;20059;-70
2022/08/31 11:28:48;;;;;;;3.67;3.37;;;;;;;;;;10411209;28;20052;-70
2022/08/31 11:34:07;;;;;;;4.13;3.50;;;;;;;;;;10411547;28;20136;-70
2022/08/31 11:39:07;;;;;;;4.28;3.88;;;;;;;;;;10413287;28;20048;-69
2022/08/31 11:44:08;;;;;;;4.20;3.67;;;;;;;;;;10411624;28;20032;-70
2022/08/31 11:49:09;;;;;;;5.20;3.97;;;;;;;;;;10414844;28;20500;-70
2022/08/31 11:54:11;;;;;;;3.70;3.40;;;;;;;;;;10413319;28;20030;-69
2022/08/31 11:59:24;;;;;;;4.30;3.47;;;;;;;;;;10408303;28;20072;-68
2022/08/31 12:04:28;;;;;;;4.32;3.67;;;;;;;;;;10395804;28;20041;-71
2022/08/31 12:09:58;;;;;;;4.05;3.65;;;;;;;;;;10399425;28;20471;-70
2022/08/31 12:15:11;;;;;;;4.95;3.63;;;;;;;;;;10393679;28;20053;-69
2022/08/31 12:20:11;;;;;;;3.75;3.42;;;;;;;;;;10397200;28;20561;-69
2022/08/31 12:25:23;;;;;;;3.97;3.57;;;;;;;;;;10397246;28;20073;-70
2022/08/31 12:30:25;;;;;;;4.13;3.60;;;;;;;;;;10399050;28;20120;-69
2022/08/31 12:35:27;;;;;;;3.70;3.38;;;;;;;;;;10403751;28;20069;-70
2022/08/31 12:40:31;;;;;;;4.00;3.70;;;;;;;;;;10400041;28;20041;-69
2022/08/31 12:45:37;;;;;;;5.80;4.47;;;;;;;;;;10402158;28;20128;-69
2022/08/31 12:50:42;;;;;;;6.47;4.20;;;;;;;;;;10400849;28;20029;-69
2022/08/31 12:55:49;;;;;;;4.68;4.28;;;;;;;;;;10396473;28;20033;-68
2022/08/31 13:00:50;;;;;;;4.15;3.72;;;;;;;;;;10400904;28;20509;-70
2022/08/31 13:06:00;;;;;;;5.13;4.70;;;;;;;;;;10399619;28;20033;-70
2022/08/31 13:11:15;;;;;;;5.97;4.45;;;;;;;;;;10399528;28;20162;-70
2022/08/31 13:16:16;;;;;;;5.38;4.70;;;;;;;;;;10384204;28;20033;-71
2022/08/31 13:21:20;;;;;;;5.45;4.45;;;;;;;;;;10402029;28;20024;-71
2022/08/31 13:26:24;;;;;;;4.90;4.40;;;;;;;;;;10400275;28;20046;-71
2022/08/31 13:31:44;;;;;;;5.75;5.13;;;;;;;;;;10396162;28;20037;-70
2022/08/31 13:36:52;;;;;;;5.20;4.70;;;;;;;;;;10396642;28;20068;-70
2022/08/31 13:42:06;;;;;;;4.80;4.40;;;;;;;;;;10397907;28;20045;-72
2022/08/31 13:47:15;;;;;;;6.43;4.95;;;;;;;;;;10398428;28;20109;-73
2022/08/31 13:52:18;;;;;;;5.30;4.80;;;;;;;;;;10397263;28;20079;-71
2022/08/31 13:57:21;;;;;;;5.97;4.70;;;;;;;;;;10402294;28;20112;-71
2022/08/31 14:02:24;;;;;;;5.90;4.60;;;;;;;;;;10398888;28;20477;-73
2022/08/31 14:07:25;;;;;;;6.43;4.93;;;;;;;;;;10399208;28;20041;-72
2022/08/31 14:12:36;;;;;;;5.20;4.67;;;;;;;;;;10396293;28;20038;-74
2022/08/31 14:17:41;;;;;;;5.20;4.70;;;;;;;;;;10400280;28;20276;-72
2022/08/31 14:22:45;;;;;;;4.45;4.05;;;;;;;;;;10398510;28;20065;-72
2022/08/31 14:27:45;;;;;;;5.05;4.55;;;;;;;;;;10402416;28;20056;-74
2022/08/31 14:32:46;;;;;;;5.40;4.90;;;;;;;;;;10409171;28;20040;-73
2022/08/31 14:37:47;;;;;;;5.10;4.60;;;;;;;;;;10406850;28;20048;-76
2022/08/31 14:42:48;;;;;;;6.30;4.55;;;;;;;;;;10398164;28;20037;-71
2022/08/31 14:47:51;;;;;;;4.68;4.22;;;;;;;;;;10411874;28;20144;-70
2022/08/31 14:52:52;;;;;;;5.15;4.32;;;;;;;;;;10427801;28;20041;-71
2022/08/31 14:57:57;;;;;;;6.63;4.53;;;;;;;;;;10413100;28;20034;-72
2022/08/31 15:02:59;;;;;;;4.70;4.30;;;;;;;;;;10403266;28;20082;-70
2022/08/31 15:08:00;;;;;;;8.00;7.00;;;;;;;;;;10409772;28;20058;-71
2022/08/31 15:13:04;;;;;;;4.97;4.45;;;;;;;;;;10408868;28;20083;-70
2022/08/31 15:18:05;;;;;;;5.45;4.35;;;;;;;;;;10406049;28;20080;-70
2022/08/31 15:23:08;;;;;;;8.10;4.40;;;;;;;;;;10423606;28;20037;-72
2022/08/31 15:28:08;;;;;;;4.57;3.80;;;;;;;;;;10419813;28;20048;-72
2022/08/31 15:33:09;;;;;;;4.55;3.83;;;;;;;;;;10416507;28;20480;-71
2022/08/31 15:38:10;;;;;;;4.50;4.10;;;;;;;;;;10417511;28;20029;-71
2022/08/31 15:43:14;;;;;;;4.65;3.88;;;;;;;;;;10408615;28;20044;-72
2022/08/31 15:53:34;;;;;;;3.97;3.60;;;;;;;;;;10402530;28;20524;-71
2022/08/31 15:58:37;;;;;;;4.80;3.47;;;;;;;;;;10410881;28;20048;-71
2022/08/31 16:03:41;;;;;;;4.50;3.10;;;;;;;;;;10426855;28;20487;-70
2022/08/31 16:08:42;;;;;;;3.85;3.40;;;;;;;;;;10417578;28;20041;-71
2022/08/31 16:13:58;;;;;;;3.93;3.63;;;;;;;;;;10410910;28;20034;-71
2022/08/31 16:19:03;;;;;;;4.25;3.40;;;;;;;;;;10409759;28;20289;-71
2022/08/31 16:24:06;;;;;;;3.70;3.38;;;;;;;;;;10419090;28;20033;-70
2022/08/31 16:29:11;;;;;;;11.88;8.43;;;;;;;;;;10409179;28;20060;-70
2022/08/31 16:34:12;;;;;;;4.30;3.40;;;;;;;;;;10414710;28;20045;-70
2022/08/31 16:39:12;;;;;;;4.22;3.83;;;;;;;;;;10401712;28;20033;-73
2022/08/31 16:44:13;;;;;;;4.13;3.70;;;;;;;;;;10410647;28;20036;-70
2022/08/31 16:49:32;;;;;;;5.20;3.58;;;;;;;;;;10420536;28;20041;-70
2022/08/31 16:54:32;;;;;;;3.70;3.40;;;;;;;;;;10402429;28;20033;-70
2022/08/31 16:59:35;;;;;;;4.07;3.65;;;;;;;;;;10423675;28;20082;-70
2022/08/31 17:04:36;;;;;;;6.03;4.05;;;;;;;;;;10411600;28;20665;-70
2022/08/31 17:09:37;;;;;;;3.50;3.20;;;;;;;;;;10414758;28;20106;-70
2022/08/31 17:14:45;;;;;;;3.70;3.40;;;;;;;;;;10403238;28;20021;-72
2022/08/31 17:19:45;;;;;;;3.85;3.55;;;;;;;;;;10415538;28;20080;-70
2022/08/31 17:24:46;;;;;;;4.87;3.80;;;;;;;;;;10404159;28;20038;-71
2022/08/31 17:29:48;;;;;;;3.70;3.40;;;;;;;;;;10405257;28;20315;-69
2022/08/31 17:34:50;;;;;;;5.13;3.60;;;;;;;;;;10415134;28;20080;-70
2022/08/31 17:39:51;;;;;;;3.67;3.37;;;;;;;;;;10392945;28;20072;-74
2022/08/31 17:44:52;;;;;;;3.95;3.55;;;;;;;;;;10412755;28;20400;-70
2022/08/31 17:49:53;;;;;;;3.90;3.60;;;;;;;;;;10411835;28;20107;-71
2022/08/31 17:54:55;;;;;;;4.15;3.53;;;;;;;;;;10410607;28;20041;-70
2022/08/31 17:59:55;;;;;;;5.75;3.75;;;;;;;;;;10405295;28;20045;-75
2022/08/31 18:04:55;;;;;;;4.40;4.00;;;;;;;;;;10410592;28;20030;-72
2022/08/31 18:09:56;;;;;;;5.60;3.53;;;;;;;;;;10400728;28;20045;-71
2022/08/31 18:14:57;;;;;;;4.03;3.63;;;;;;;;;;10405411;28;20136;-70
2022/08/31 18:19:58;;;;;;;4.23;3.83;;;;;;;;;;10409628;28;20033;-72
2022/08/31 18:24:58;;;;;;;4.43;3.33;;;;;;;;;;10412386;28;20037;-71
2022/08/31 18:29:59;;;;;;;4.47;3.60;;;;;;;;;;10413426;28;20120;-70
2022/08/31 18:35:00;;;;;;;4.47;4.05;;;;;;;;;;10418855;28;20069;-70
2022/08/31 18:45:19;;;;;;;4.07;3.53;;;;;;;;;;10410755;28;20287;-72
2022/08/31 18:50:20;;;;;;;3.90;3.50;;;;;;;;;;10427744;28;20053;-71
2022/08/31 18:55:21;;;;;;;3.78;3.38;;;;;;;;;;10414296;28;20378;-70
2022/08/31 19:00:21;;;;;;;4.22;3.85;;;;;;;;;;10435485;28;20025;-72
2022/08/31 19:05:22;;;;;;;4.32;3.63;;;;;;;;;;10432201;28;20400;-71
2022/08/31 19:10:24;;;;;;;4.97;4.50;;;;;;;;;;10425307;28;20034;-71
2022/08/31 19:15:25;;;;;;;4.78;4.25;;;;;;;;;;10415864;28;20300;-71
2022/08/31 19:20:27;;;;;;;7.20;5.00;;;;;;;;;;10414308;28;20105;-72
2022/08/31 19:25:28;;;;;;;4.68;4.15;;;;;;;;;;10420197;28;20296;-72
2022/08/31 19:30:29;;;;;;;4.70;4.30;;;;;;;;;;10411567;28;20531;-73
2022/08/31 19:35:29;;;;;;;4.70;4.18;;;;;;;;;;10416688;28;20041;-74
2022/08/31 19:40:36;;;;;;;4.47;4.05;;;;;;;;;;10386954;28;20551;-72
2022/08/31 19:45:36;;;;;;;4.75;4.35;;;;;;;;;;10414295;28;20033;-71
2022/08/31 19:50:37;;;;;;;5.57;4.50;;;;;;;;;;10425960;28;20021;-72
2022/08/31 19:55:48;;;;;;;4.85;4.35;;;;;;;;;;10411556;28;20694;-72
2022/08/31 20:00:48;;;;;;;5.10;4.65;;;;;;;;;;10420181;28;20654;-72
2022/08/31 20:05:49;;;;;;;4.80;4.32;;;;;;;;;;10416055;28;20099;-75
2022/08/31 20:10:49;;;;;;;5.00;4.50;;;;;;;;;;10418392;28;20048;-72
2022/08/31 20:15:51;;;;;;;5.03;4.53;;;;;;;;;;10415144;28;20052;-72
2022/08/31 20:20:53;;;;;;;6.15;5.13;;;;;;;;;;10418286;28;20033;-72
2022/08/31 20:25:54;;;;;;;5.45;4.30;;;;;;;;;;10419129;28;20055;-72
2022/08/31 20:30:57;;;;;;;4.95;4.47;;;;;;;;;;10425076;28;20039;-72
2022/08/31 20:35:58;;;;;;;4.63;4.10;;;;;;;;;;10429178;28;20055;-72
2022/08/31 20:41:01;;;;;;;4.85;4.32;;;;;;;;;;10419926;28;20033;-71
2022/08/31 20:46:01;;;;;;;4.72;4.32;;;;;;;;;;10409839;28;20149;-71
2022/08/31 20:51:15;;;;;;;5.10;4.60;;;;;;;;;;10414085;28;20037;-71
2022/08/31 20:56:15;;;;;;;;;;;;;;;;;;10408887;28;20136;-74
2022/08/31 21:01:15;;;;;;;4.93;4.40;;;;;;;;;;10417949;28;20336;-83
2022/08/31 21:06:16;;;;;;;4.50;4.10;;;;;;;;;;10453293;28;20052;-78
2022/08/31 21:11:17;;;;;;;4.53;4.13;;;;;;;;;;10457444;28;20291;-77
2022/08/31 21:16:18;;;;;;;4.25;3.85;;;;;;;;;;10450846;28;20059;-79
2022/08/31 21:21:19;;;;;;;4.70;4.13;;;;;;;;;;10433720;28;20092;-77
2022/08/31 21:26:23;;;;;;;4.50;4.10;;;;;;;;;;10411674;28;20056;-78
2022/08/31 21:31:24;;;;;;;5.10;4.60;;;;;;;;;;10409929;28;20037;-78
2022/08/31 21:36:27;;;;;;;5.00;4.45;;;;;;;;;;10410152;28;20187;-76
2022/08/31 21:41:28;;;;;;;4.72;4.32;;;;;;;;;;10408816;28;20152;-78
2022/08/31 21:46:28;;;;;;;5.07;4.33;;;;;;;;;;10419714;28;20132;-78
2022/08/31 21:51:31;;;;;;;5.43;4.68;;;;;;;;;;10415341;28;20306;-74
2022/08/31 21:56:35;;;;;;;4.65;4.30;;;;;;;;;;10415127;28;20041;-72
2022/08/31 22:01:36;;;;;;;5.30;4.07;;;;;;;;;;10412563;28;20787;-73
2022/08/31 22:06:37;;;;;;;4.32;3.92;;;;;;;;;;10411407;28;20041;-72
2022/08/31 22:11:40;;;;;;;4.22;3.80;;;;;;;;;;10415818;28;20067;-72
2022/08/31 22:16:45;;;;;;;4.60;4.20;;;;;;;;;;10406993;28;20038;-74
2022/08/31 22:21:46;;;;;;;4.88;4.18;;;;;;;;;;10411931;28;20045;-73
2022/08/31 22:26:47;;;;;;;4.97;4.38;;;;;;;;;;10418647;28;20034;-72
2022/08/31 22:31:49;;;;;;;5.30;4.50;;;;;;;;;;10398390;28;20090;-72
2022/08/31 22:36:50;;;;;;;5.10;4.60;;;;;;;;;;10409682;28;20068;-72
2022/08/31 22:41:51;;;;;;;4.60;4.20;;;;;;;;;;10422083;28;20037;-71
2022/08/31 22:46:52;;;;;;;5.07;4.57;;;;;;;;;;10411334;28;20049;-71
2022/08/31 22:51:53;;;;;;;6.97;4.30;;;;;;;;;;10412499;28;20030;-72
2022/08/31 22:56:54;;;;;;;6.00;4.38;;;;;;;;;;10413392;28;20036;-71
2022/08/31 23:01:56;;;;;;;5.28;4.63;;;;;;;;;;10401156;28;20038;-73
2022/08/31 23:06:58;;;;;;;5.23;4.23;;;;;;;;;;10420647;28;20037;-72
2022/08/31 23:11:59;;;;;;;5.05;4.55;;;;;;;;;;10413056;28;20731;-73
2022/08/31 23:17:02;;;;;;;4.93;4.43;;;;;;;;;;10406609;28;20075;-72
2022/08/31 23:22:03;;;;;;;;;;;;;;;;;;10413803;28;20034;-71
2022/08/31 23:27:08;;;;;;;5.32;4.82;;;;;;;;;;10421354;28;19921;-72
2022/08/31 23:32:12;;;;;;;4.70;4.30;;;;;;;;;;10419107;28;20497;-71
2022/08/31 23:37:12;;;;;;;4.93;4.45;;;;;;;;;;10418549;28;20067;-72
2022/08/31 23:42:14;;;;;;;4.80;4.40;;;;;;;;;;10423171;28;20060;-72
2022/08/31 23:47:16;;;;;;;5.03;4.63;;;;;;;;;;10414887;28;20041;-73
2022/08/31 23:52:19;;;;;;;5.03;4.53;;;;;;;;;;10427431;28;20047;-73
2022/08/31 23:57:21;;;;;;;6.00;5.03;;;;;;;;;;10402430;28;20033;-74
